Detroit, Michigan
Current Conditions -  °F | °C
As of 3:00 AM on Friday 24 Oct 2014 (Local Time) from CYQG Reporting Station
Overcast Overcast  
Wind Chill: 36°   Ceiling: 28000
Heat Index: 39°   Visibility: 15mi
Dew Point: 37°   Wind: 5mph
Humidity: 93%   Direction: 220°SW
Pressure: 30.09"   Gusts: NA
Location:  42.33°N, 83.05°W
Report Text: CYQG 240700Z 22004KT 15SM OVC280 04/03 A3009 RMK CI8 SLP192
Loading
Personal Weather Stations






























Interactive Weather Map New forecast layout! Learn more

10-Day Weather Forecast

Advertisements
Track Severe Weather on mobile